»·PEaware :: N420VL KSAC-KMRY

N420VL :: KSAC-KMRY

FLIGHT INFORMATION

Flight Status: Arrived
Operator: Privately registered:
United States
More flights under this callsign
Pilot: Chris V. (11989)
Aircraft: BEECH AIRCRAFT BARON
(BE58)
More flights by this aircraft type
Origin: KSAC Sacramento Executive
United States
Destination: KMRY Monterey Peninsula
United States
More flights between these airports :: More routes between these airports
Route: +
File this flight plan on PilotEdge
Remarks:
Altitude:
(Current/Filed)
0ft
Speed:
(Current/Filed)
0kts
Departed: 29-Jul-18 11:13 AM
Arrived: 29-Jul-18 12:21 PM
Distance/Time
Traveled:
117nm/1:08
Distance/Time
To Go:
Arrived

Flight Plot

Page will automatically refresh every two minutes.

Flight plan parsing failed; only flown route is shown


Map Options




Map Legend


Flown Route
Filed Route
Departure Airport
Arrival Airport
Navaid (VOR, NDB)
Fix

Horizontal Profiles

Position Reports

Time Latitude Longitude Heading Altitude Ground
Speed
29-Jul-18 11:03 38.516538 -121.497277 216 24ft 0kts
29-Jul-18 11:04 38.516538 -121.497277 216 24ft 0kts
29-Jul-18 11:05 38.516538 -121.497277 216 24ft 0kts
29-Jul-18 11:06 38.516538 -121.497277 216 24ft 0kts
29-Jul-18 11:07 38.516538 -121.497277 216 24ft 0kts
29-Jul-18 11:08 38.516538 -121.497277 216 24ft 0kts
29-Jul-18 11:09 38.516538 -121.497277 216 24ft 0kts
29-Jul-18 11:10 38.516538 -121.497277 216 24ft 0kts
29-Jul-18 11:11 38.516538 -121.497277 216 24ft 0kts
29-Jul-18 11:12 38.517848 -121.495539 41 24ft 1kts
29-Jul-18 11:13 38.518103 -121.495238 42 24ft 8kts
29-Jul-18 11:14 38.513543 -121.488508 136 29ft 111kts
29-Jul-18 11:15 38.489319 -121.461191 161 1232ft 124kts
29-Jul-18 11:16 38.453939 -121.457322 181 2066ft 140kts
29-Jul-18 11:17 38.412224 -121.461337 188 2570ft 165kts
29-Jul-18 11:18 38.364253 -121.457810 176 2584ft 181kts
29-Jul-18 11:19 38.313847 -121.452850 178 2525ft 182kts
29-Jul-18 11:20 38.263652 -121.448912 172 2500ft 182kts
29-Jul-18 11:21 38.215518 -121.430566 159 2459ft 182kts
29-Jul-18 11:22 38.167788 -121.410533 167 2517ft 179kts
29-Jul-18 11:23 38.118340 -121.397082 170 2462ft 185kts
29-Jul-18 11:24 38.069141 -121.379776 164 2454ft 187kts
29-Jul-18 11:25 38.019363 -121.364461 171 2478ft 186kts
29-Jul-18 11:26 37.968284 -121.362233 182 2503ft 185kts
29-Jul-18 11:27 37.931236 -121.392448 273 2445ft 181kts
29-Jul-18 11:28 37.938560 -121.455600 281 2403ft 181kts
29-Jul-18 11:29 37.944604 -121.515213 281 2564ft 178kts
29-Jul-18 11:30 37.945732 -121.578407 272 2529ft 182kts
29-Jul-18 11:31 37.945525 -121.638514 271 2528ft 179kts
29-Jul-18 11:32 37.946710 -121.693229 271 2573ft 179kts
29-Jul-18 11:33 37.946101 -121.756502 271 2581ft 180kts
29-Jul-18 11:34 37.947461 -121.819719 272 2537ft 179kts
29-Jul-18 11:35 37.952472 -121.882845 275 2485ft 180kts
29-Jul-18 11:36 37.958929 -121.945885 276 2451ft 182kts
29-Jul-18 11:37 37.967661 -122.007735 278 2542ft 184kts
29-Jul-18 11:38 37.972539 -122.071791 266 2448ft 184kts
29-Jul-18 11:39 37.972553 -122.129392 267 2488ft 180kts
29-Jul-18 11:40 37.965487 -122.191569 240 2404ft 183kts
29-Jul-18 11:41 37.930092 -122.238411 223 1890ft 182kts
29-Jul-18 11:42 37.895709 -122.282386 223 1612ft 172kts
29-Jul-18 11:43 37.863512 -122.325626 227 1618ft 173kts
29-Jul-18 11:44 37.840213 -122.379641 254 1554ft 181kts
29-Jul-18 11:45 37.830530 -122.442647 255 1555ft 179kts
29-Jul-18 11:46 37.815426 -122.501479 228 1409ft 182kts
29-Jul-18 11:47 37.774028 -122.524496 173 1061ft 168kts
29-Jul-18 11:48 37.729262 -122.515134 170 1042ft 158kts
29-Jul-18 11:49 37.685768 -122.508962 182 1050ft 156kts
29-Jul-18 11:50 37.642328 -122.513699 187 1046ft 157kts
29-Jul-18 11:51 37.600068 -122.526980 190 1066ft 157kts
29-Jul-18 11:52 37.556499 -122.529171 177 1083ft 156kts
29-Jul-18 11:53 37.513528 -122.520695 154 1069ft 159kts
29-Jul-18 11:54 37.489189 -122.475622 100 1027ft 165kts
29-Jul-18 11:55 37.457819 -122.447608 174 1199ft 165kts
29-Jul-18 11:56 37.410786 -122.438545 168 1183ft 173kts
29-Jul-18 11:57 37.365776 -122.417457 163 1253ft 173kts
29-Jul-18 11:58 37.318310 -122.408501 182 1239ft 174kts
29-Jul-18 11:59 37.271365 -122.416305 196 1395ft 171kts
29-Jul-18 12:00 37.223808 -122.417839 172 1452ft 171kts
29-Jul-18 12:01 37.179781 -122.393982 142 1469ft 175kts
29-Jul-18 12:02 37.142617 -122.355248 143 1532ft 176kts
29-Jul-18 12:03 37.106704 -122.313734 130 1487ft 181kts
29-Jul-18 12:04 37.077845 -122.263884 134 1578ft 175kts
29-Jul-18 12:05 37.041579 -122.222293 141 1521ft 177kts
29-Jul-18 12:06 37.003637 -122.182789 140 1510ft 178kts
29-Jul-18 12:07 36.967511 -122.141039 136 1561ft 176kts
29-Jul-18 12:08 36.948583 -122.085453 97 1560ft 180kts
29-Jul-18 12:09 36.947108 -122.022632 73 1589ft 184kts
29-Jul-18 12:10 36.965584 -121.964251 88 1653ft 180kts
29-Jul-18 12:11 36.967924 -121.901485 115 1653ft 178kts
29-Jul-18 12:12 36.931773 -121.863583 160 1750ft 174kts
29-Jul-18 12:13 36.888004 -121.841435 156 1782ft 176kts
29-Jul-18 12:14 36.846171 -121.812816 153 1782ft 175kts
29-Jul-18 12:15 36.801657 -121.790415 175 1887ft 172kts
29-Jul-18 12:16 36.753902 -121.794775 187 1970ft 172kts
29-Jul-18 12:17 36.707144 -121.807809 194 2018ft 174kts
29-Jul-18 12:18 36.659644 -121.823362 193 1983ft 173kts
29-Jul-18 12:19 36.622724 -121.797798 114 1927ft 181kts
29-Jul-18 12:20 36.585577 -121.788309 208 1494ft 155kts
29-Jul-18 12:21 36.579546 -121.822285 288 483ft 106kts
29-Jul-18 12:22 36.588295 -121.848239 291 164ft 34kts
29-Jul-18 12:23 36.589665 -121.849778 288 164ft 8kts
29-Jul-18 12:24 36.591327 -121.850498 71 164ft 9kts
29-Jul-18 12:25 36.591496 -121.850164 50 164ft 0kts
29-Jul-18 12:26 36.591496 -121.850164 50 164ft 0kts
29-Jul-18 12:27 36.591496 -121.850164 50 164ft 0kts
29-Jul-18 12:28 36.591496 -121.850164 50 164ft 0kts

Navigation Log

Ident Type
Flight plan parsing failed, navigation log unavailable